Time;durP1;ratioP1;P1;durP2;ratioP2;P2;SDS_P1;SDS_P2;PMS_P1;PMS_P2;Temp;Humidity;BMP_temperature;BMP_pressure;BME280_temperature;BME280_humidity;BME280_pressure;Samples;Min_cycle;Max_cycle;Signal;HPM_P1;HPM_P2
2022/04/21 00:04:19;;;;;;;3.63;3.42;;;;;;;;;;12704003;28;20028;-78
2022/04/21 00:10:21;;;;;;;3.90;3.60;;;;;;;;;;12702536;28;20044;-78
2022/04/21 00:16:23;;;;;;;4.10;3.80;;;;;;;;;;12703290;28;20036;-78
2022/04/21 00:28:45;;;;;;;3.45;3.15;;;;;;;;;;12702460;28;20059;-78
2022/04/21 00:34:46;;;;;;;4.18;3.80;;;;;;;;;;12702280;28;20051;-78
2022/04/21 00:40:49;;;;;;;4.03;3.58;;;;;;;;;;12667501;28;20040;-78
2022/04/21 00:46:52;;;;;;;4.18;3.80;;;;;;;;;;12683841;28;20031;-78
2022/04/21 00:52:54;;;;;;;3.53;3.22;;;;;;;;;;12700315;28;20043;-78
2022/04/21 00:58:57;;;;;;;3.90;3.60;;;;;;;;;;12701749;28;20031;-78
2022/04/21 01:04:59;;;;;;;3.47;3.28;;;;;;;;;;12699740;28;20402;-78
2022/04/21 01:11:02;;;;;;;3.90;3.60;;;;;;;;;;12701829;28;20035;-78
2022/04/21 01:17:07;;;;;;;3.17;2.97;;;;;;;;;;12666945;28;20028;-78
2022/04/21 01:23:09;;;;;;;4.45;4.15;;;;;;;;;;12682764;28;20027;-78
2022/04/21 01:29:10;;;;;;;4.13;3.83;;;;;;;;;;12698784;28;20055;-77
2022/04/21 01:35:13;;;;;;;5.30;4.80;;;;;;;;;;12696429;28;20042;-78
2022/04/21 01:41:14;;;;;;;4.37;4.07;;;;;;;;;;12678669;28;20053;-78
2022/04/21 01:47:16;;;;;;;4.78;4.32;;;;;;;;;;12678349;28;20028;-78
2022/04/21 01:53:18;;;;;;;4.75;4.35;;;;;;;;;;12708727;27;20403;-78
2022/04/21 01:59:20;;;;;;;4.72;4.32;;;;;;;;;;12696128;28;20036;-78
2022/04/21 02:05:22;;;;;;;4.47;4.07;;;;;;;;;;12696410;28;20388;-78
2022/04/21 02:11:24;;;;;;;4.30;4.00;;;;;;;;;;12678498;28;20043;-78
2022/04/21 02:17:25;;;;;;;4.63;4.23;;;;;;;;;;12663097;27;20031;-78
2022/04/21 02:23:27;;;;;;;3.60;3.30;;;;;;;;;;12694547;28;20023;-78
2022/04/21 02:29:29;;;;;;;3.75;3.45;;;;;;;;;;12693899;28;20047;-78
2022/04/21 02:35:30;;;;;;;3.83;3.58;;;;;;;;;;12678680;28;20043;-78
2022/04/21 02:41:32;;;;;;;4.22;3.83;;;;;;;;;;12696845;28;20024;-78
2022/04/21 02:47:35;;;;;;;4.40;4.00;;;;;;;;;;12707916;27;20047;-78
2022/04/21 02:59:58;;;;;;;4.07;3.78;;;;;;;;;;12696131;28;20470;-77
2022/04/21 03:06:00;;;;;;;3.95;3.65;;;;;;;;;;12695786;28;20027;-78
2022/04/21 03:12:03;;;;;;;4.30;3.90;;;;;;;;;;12694073;28;20051;-78
2022/04/21 03:18:05;;;;;;;4.53;4.15;;;;;;;;;;12676938;28;20043;-78
2022/04/21 03:24:19;;;;;;;3.95;3.65;;;;;;;;;;12676608;28;20035;-78
2022/04/21 03:30:24;;;;;;;4.20;3.85;;;;;;;;;;12694530;28;20060;-78
2022/04/21 03:36:47;;;;;;;4.68;4.28;;;;;;;;;;12694768;28;20472;-78
2022/04/21 03:42:49;;;;;;;;;;;;;;;;;;12677655;28;20027;-78
2022/04/21 03:48:51;;;;;;;5.57;5.18;;;;;;;;;;12694647;28;19907;-78
2022/04/21 03:54:52;;;;;;;5.28;4.78;;;;;;;;;;12694908;28;20047;-78
2022/04/21 04:00:54;;;;;;;4.97;4.57;;;;;;;;;;12693972;28;20391;-78
2022/04/21 04:13:23;;;;;;;4.28;3.65;;;;;;;;;;12675543;28;20043;-78
2022/04/21 04:19:25;;;;;;;3.30;3.10;;;;;;;;;;12694223;28;20024;-78
2022/04/21 04:25:27;;;;;;;4.50;4.18;;;;;;;;;;12705134;28;20047;-78
2022/04/21 04:31:28;;;;;;;3.22;3.03;;;;;;;;;;12694583;28;20052;-78
2022/04/21 04:37:30;;;;;;;6.13;5.63;;;;;;;;;;12696477;28;20024;-82
2022/04/21 04:43:32;;;;;;;6.07;5.57;;;;;;;;;;12704213;28;20032;-83
2022/04/21 04:49:33;;;;;;;5.35;4.95;;;;;;;;;;12684224;28;20031;-77
2022/04/21 04:55:35;;;;;;;5.03;4.68;;;;;;;;;;12700983;28;20032;-77
2022/04/21 05:01:41;;;;;;;5.20;4.80;;;;;;;;;;12700944;28;20476;-77
2022/04/21 05:07:43;;;;;;;4.18;3.88;;;;;;;;;;12694888;28;20051;-77
2022/04/21 05:13:44;;;;;;;5.97;5.47;;;;;;;;;;12701165;28;20042;-77
2022/04/21 05:19:46;;;;;;;6.18;5.68;;;;;;;;;;12699153;28;20035;-77
2022/04/21 05:25:48;;;;;;;5.10;4.60;;;;;;;;;;12681774;28;20047;-77
2022/04/21 05:31:51;;;;;;;4.70;4.30;;;;;;;;;;12665025;28;20055;-77
2022/04/21 05:37:53;;;;;;;4.65;4.25;;;;;;;;;;12693949;28;20027;-77
2022/04/21 05:43:56;;;;;;;3.90;3.60;;;;;;;;;;12684067;28;20055;-75
2022/04/21 05:50:07;;;;;;;4.20;3.90;;;;;;;;;;12663300;28;20036;-75
2022/04/21 05:56:09;;;;;;;5.33;4.93;;;;;;;;;;12678501;27;20036;-76
2022/04/21 06:02:11;;;;;;;7.20;6.47;;;;;;;;;;12681899;28;20035;-76
2022/04/21 06:08:13;;;;;;;5.77;5.07;;;;;;;;;;12685981;28;20034;-76
2022/04/21 06:14:15;;;;;;;5.25;4.80;;;;;;;;;;12670381;28;20035;-76
2022/04/21 06:20:17;;;;;;;5.40;5.00;;;;;;;;;;12683483;28;20040;-76
2022/04/21 06:26:18;;;;;;;5.82;5.32;;;;;;;;;;12677444;27;20042;-77
2022/04/21 06:32:20;;;;;;;5.68;5.28;;;;;;;;;;12655024;28;20059;-76
2022/04/21 06:38:22;;;;;;;5.72;5.18;;;;;;;;;;12670298;28;20422;-76
2022/04/21 06:50:44;;;;;;;5.55;5.10;;;;;;;;;;12699885;27;20313;-76
2022/04/21 06:56:48;;;;;;;4.38;4.03;;;;;;;;;;12684640;27;20423;-76
2022/04/21 07:02:55;;;;;;;5.60;5.05;;;;;;;;;;12684315;28;20040;-76
2022/04/21 07:08:57;;;;;;;5.40;4.88;;;;;;;;;;12683661;28;20032;-76
2022/04/21 07:14:59;;;;;;;6.32;5.40;;;;;;;;;;12680804;28;20031;-76
2022/04/21 07:21:03;;;;;;;5.70;5.13;;;;;;;;;;12676046;28;20365;-76
2022/04/21 07:27:05;;;;;;;6.40;5.75;;;;;;;;;;12678818;28;20032;-76
2022/04/21 07:33:06;;;;;;;5.72;5.22;;;;;;;;;;12693232;28;20500;-76
2022/04/21 07:39:08;;;;;;;6.30;5.70;;;;;;;;;;12668661;28;20491;-76
2022/04/21 07:45:10;;;;;;;7.68;6.95;;;;;;;;;;12676789;28;20035;-77
2022/04/21 07:51:11;;;;;;;6.63;5.80;;;;;;;;;;12657030;28;20040;-77
2022/04/21 07:57:13;;;;;;;6.15;5.55;;;;;;;;;;12683132;28;20396;-76
2022/04/21 08:03:19;;;;;;;6.07;5.57;;;;;;;;;;12684823;28;20031;-76
2022/04/21 08:09:21;;;;;;;5.53;5.03;;;;;;;;;;12685637;28;20500;-78
2022/04/21 08:15:24;;;;;;;4.43;4.10;;;;;;;;;;12675671;28;20051;-78
2022/04/21 08:21:26;;;;;;;5.07;4.00;;;;;;;;;;12696558;27;20023;-79
2022/04/21 08:33:48;;;;;;;3.55;3.25;;;;;;;;;;12678984;28;20426;-79
2022/04/21 08:39:49;;;;;;;3.85;3.42;;;;;;;;;;12699108;28;20024;-79
2022/04/21 08:45:53;;;;;;;2.83;2.63;;;;;;;;;;12690857;28;20031;-76
2022/04/21 08:51:56;;;;;;;2.50;2.30;;;;;;;;;;12659662;28;20383;-76
2022/04/21 08:57:57;;;;;;;3.05;2.80;;;;;;;;;;12692047;28;20042;-79
2022/04/21 09:04:00;;;;;;;3.25;2.95;;;;;;;;;;12679202;28;20020;-78
2022/04/21 09:10:02;;;;;;;2.72;2.53;;;;;;;;;;12676885;28;20048;-79
2022/04/21 09:16:08;;;;;;;2.40;2.20;;;;;;;;;;12675618;28;20039;-78
2022/04/21 09:22:10;;;;;;;2.38;2.17;;;;;;;;;;12678736;28;20035;-78
2022/04/21 09:28:25;;;;;;;2.77;2.57;;;;;;;;;;12691112;27;20043;-78
2022/04/21 09:34:27;;;;;;;3.78;3.47;;;;;;;;;;12685380;28;20040;-79
2022/04/21 09:40:30;;;;;;;2.38;2.10;;;;;;;;;;12709883;28;20043;-79
2022/04/21 09:46:34;;;;;;;1.85;1.70;;;;;;;;;;12696811;28;20032;-79
2022/04/21 09:52:36;;;;;;;1.90;1.70;;;;;;;;;;12689352;28;20399;-78
2022/04/21 09:58:38;;;;;;;2.13;1.87;;;;;;;;;;12693189;28;20020;-79
2022/04/21 10:04:42;;;;;;;1.75;1.65;;;;;;;;;;12687076;28;20561;-79
2022/04/21 10:10:44;;;;;;;1.63;1.52;;;;;;;;;;12691553;28;20545;-79
2022/04/21 10:16:46;;;;;;;1.45;1.30;;;;;;;;;;12665355;28;20464;-80
2022/04/21 10:22:49;;;;;;;1.90;1.80;;;;;;;;;;12674867;28;20035;-80
2022/04/21 10:28:50;;;;;;;;;;;;;;;;;;12679853;28;20046;-81
2022/04/21 10:34:56;;;;;;;1.70;1.60;;;;;;;;;;12684132;28;19930;-81
2022/04/21 10:41:07;;;;;;;2.30;2.10;;;;;;;;;;12667291;28;20530;-80
2022/04/21 10:47:28;;;;;;;2.42;2.22;;;;;;;;;;12684888;28;20031;-81
2022/04/21 11:00:23;;;;;;;3.88;1.90;;;;;;;;;;12682486;28;20062;-81
2022/04/21 11:06:38;;;;;;;2.70;2.03;;;;;;;;;;12636907;28;20031;-81
2022/04/21 11:12:49;;;;;;;4.15;2.30;;;;;;;;;;12684039;28;20035;-80
2022/04/21 11:18:51;;;;;;;2.33;2.13;;;;;;;;;;12655755;28;20693;-80
2022/04/21 11:24:56;;;;;;;4.15;2.17;;;;;;;;;;12672432;28;20034;-82
2022/04/21 11:30:58;;;;;;;1.80;1.70;;;;;;;;;;12673988;28;21284;-82
2022/04/21 11:37:06;;;;;;;;;;;;;;;;;;12680740;28;20490;-82
2022/04/21 11:43:11;;;;;;;1.95;1.75;;;;;;;;;;12670044;28;19915;-82
2022/04/21 11:49:13;;;;;;;1.98;1.88;;;;;;;;;;12688755;28;20032;-83
2022/04/21 11:55:16;;;;;;;1.80;1.70;;;;;;;;;;12693449;27;20036;-82
2022/04/21 12:07:39;;;;;;;3.40;2.15;;;;;;;;;;12695420;28;20023;-82
2022/04/21 12:13:40;;;;;;;;;;;;;;;;;;12695724;27;20036;-81
2022/04/21 12:19:45;;;;;;;3.30;2.28;;;;;;;;;;12692719;28;19914;-79
2022/04/21 12:25:48;;;;;;;2.28;1.55;;;;;;;;;;12681940;28;20042;-81
2022/04/21 12:31:50;;;;;;;;;;;;;;;;;;12677213;27;20052;-82
2022/04/21 12:38:50;;;;;;;1.35;1.23;;;;;;;;;;12673379;27;20352;-81
2022/04/21 12:44:18;;;;;;;1.48;1.38;;;;;;;;;;12673080;28;20035;-81
2022/04/21 12:50:21;;;;;;;2.05;1.60;;;;;;;;;;12694379;27;20043;-81
2022/04/21 12:56:33;;;;;;;2.25;1.20;;;;;;;;;;12658418;28;20476;-81
2022/04/21 13:02:35;;;;;;;1.80;1.07;;;;;;;;;;12660058;28;20031;-81
2022/04/21 13:08:37;;;;;;;1.40;1.30;;;;;;;;;;12688722;27;20617;-82
2022/04/21 13:14:39;;;;;;;2.08;1.35;;;;;;;;;;12697251;27;20019;-81
2022/04/21 13:27:02;;;;;;;1.83;1.73;;;;;;;;;;12687651;28;20034;-81
2022/04/21 13:33:22;;;;;;;2.00;1.83;;;;;;;;;;12691176;28;20404;-81
2022/04/21 13:39:24;;;;;;;1.55;1.10;;;;;;;;;;12692630;28;20122;-82
2022/04/21 13:45:26;;;;;;;;;;;;;;;;;;12688577;28;20377;-82
2022/04/21 13:51:27;;;;;;;1.92;1.30;;;;;;;;;;12691717;28;19916;-81
2022/04/21 13:57:29;;;;;;;1.30;1.20;;;;;;;;;;12663282;27;20046;-79
2022/04/21 14:03:37;;;;;;;1.67;1.58;;;;;;;;;;12704030;27;20012;-78
2022/04/21 14:09:39;;;;;;;1.10;1.00;;;;;;;;;;12687404;28;20035;-79
2022/04/21 14:15:41;;;;;;;1.43;1.33;;;;;;;;;;12697318;28;20042;-79
2022/04/21 14:21:43;;;;;;;1.20;1.10;;;;;;;;;;12696843;28;20042;-79
2022/04/21 14:27:45;;;;;;;1.40;1.20;;;;;;;;;;12677883;28;20042;-79
2022/04/21 14:33:47;;;;;;;1.20;1.10;;;;;;;;;;12696473;28;20063;-79
2022/04/21 14:46:10;;;;;;;1.08;0.98;;;;;;;;;;12696278;28;20035;-79
2022/04/21 14:52:11;;;;;;;1.98;0.90;;;;;;;;;;12677876;28;20043;-79
2022/04/21 14:58:13;;;;;;;0.80;0.60;;;;;;;;;;12695700;28;20062;-79
2022/04/21 15:04:15;;;;;;;0.63;0.63;;;;;;;;;;12695510;28;20481;-79
2022/04/21 15:10:17;;;;;;;1.53;1.13;;;;;;;;;;12677194;28;20035;-78
2022/04/21 15:16:19;;;;;;;1.05;0.93;;;;;;;;;;12694897;28;20069;-79
2022/04/21 15:22:22;;;;;;;1.20;0.98;;;;;;;;;;12707577;28;20039;-78
2022/04/21 15:28:24;;;;;;;1.00;0.90;;;;;;;;;;12698387;28;20027;-79
2022/04/21 15:34:26;;;;;;;1.70;0.80;;;;;;;;;;12676747;28;20070;-78
2022/04/21 15:40:28;;;;;;;0.97;0.87;;;;;;;;;;12676246;28;20027;-77
2022/04/21 15:46:29;;;;;;;1.00;0.90;;;;;;;;;;12691032;28;20036;-81
2022/04/21 15:52:32;;;;;;;1.00;0.90;;;;;;;;;;12694207;28;20044;-78
2022/04/21 15:58:49;;;;;;;1.33;1.10;;;;;;;;;;12694399;28;20378;-78
2022/04/21 16:04:51;;;;;;;2.80;2.33;;;;;;;;;;12675697;28;20036;-79
2022/04/21 16:10:53;;;;;;;3.72;3.25;;;;;;;;;;12675211;28;20049;-79
2022/04/21 16:16:54;;;;;;;3.05;2.75;;;;;;;;;;12695332;28;20489;-79
2022/04/21 16:22:56;;;;;;;1.95;1.60;;;;;;;;;;12706574;28;20040;-79
2022/04/21 16:28:58;;;;;;;2.50;1.95;;;;;;;;;;12692768;28;20052;-79
2022/04/21 16:34:59;;;;;;;2.72;1.60;;;;;;;;;;12697638;28;20420;-78
2022/04/21 16:41:01;;;;;;;1.30;1.20;;;;;;;;;;12699648;28;20035;-78
2022/04/21 16:47:03;;;;;;;1.10;1.00;;;;;;;;;;12683245;28;20043;-78
2022/04/21 16:53:06;;;;;;;0.90;0.90;;;;;;;;;;12701544;28;20043;-79
2022/04/21 16:59:08;;;;;;;1.75;1.65;;;;;;;;;;12701501;28;20024;-79
2022/04/21 17:05:09;;;;;;;1.25;1.15;;;;;;;;;;12682929;28;20027;-79
2022/04/21 17:11:11;;;;;;;3.03;2.60;;;;;;;;;;12700730;28;20043;-79
2022/04/21 17:17:13;;;;;;;2.50;1.20;;;;;;;;;;12708947;28;20292;-78
2022/04/21 17:23:15;;;;;;;1.80;1.65;;;;;;;;;;12702490;28;20495;-79
2022/04/21 17:29:17;;;;;;;1.37;1.27;;;;;;;;;;12716508;28;20059;-79
2022/04/21 17:35:18;;;;;;;0.80;0.80;;;;;;;;;;12699635;28;20057;-79
2022/04/21 17:41:20;;;;;;;2.83;2.53;;;;;;;;;;12699381;28;20054;-79
2022/04/21 17:47:22;;;;;;;2.33;2.13;;;;;;;;;;12680904;28;20027;-79
2022/04/21 17:53:24;;;;;;;3.55;2.17;;;;;;;;;;12680680;28;20050;-79
2022/04/21 17:59:25;;;;;;;2.47;1.92;;;;;;;;;;12680896;28;20035;-79
2022/04/21 18:05:27;;;;;;;2.15;2.00;;;;;;;;;;12698474;28;20035;-79
2022/04/21 18:11:29;;;;;;;3.13;2.28;;;;;;;;;;12679805;28;20369;-79
2022/04/21 18:17:31;;;;;;;3.50;3.20;;;;;;;;;;12697568;28;20039;-79
2022/04/21 18:23:33;;;;;;;2.90;2.70;;;;;;;;;;12679314;28;20036;-83
2022/04/21 18:29:39;;;;;;;3.40;3.17;;;;;;;;;;12678589;28;20063;-83
2022/04/21 18:35:41;;;;;;;3.10;2.80;;;;;;;;;;12697148;28;20035;-81
2022/04/21 18:41:44;;;;;;;3.08;2.78;;;;;;;;;;12696166;28;20074;-78
2022/04/21 18:47:46;;;;;;;3.20;2.90;;;;;;;;;;12696342;28;20476;-77
2022/04/21 18:53:49;;;;;;;4.78;4.05;;;;;;;;;;12695502;28;20043;-78
2022/04/21 18:59:52;;;;;;;6.75;6.05;;;;;;;;;;12694998;28;20038;-78
2022/04/21 19:05:54;;;;;;;4.32;3.75;;;;;;;;;;12695430;28;20043;-76
2022/04/21 19:11:56;;;;;;;3.95;3.55;;;;;;;;;;12695181;28;20043;-77
2022/04/21 19:17:58;;;;;;;3.53;3.22;;;;;;;;;;12695370;28;20027;-82
2022/04/21 19:24:00;;;;;;;4.83;4.17;;;;;;;;;;12695011;28;20035;-77
2022/04/21 19:30:02;;;;;;;6.90;5.45;;;;;;;;;;12694371;28;20064;-79
2022/04/21 19:36:05;;;;;;;5.55;5.00;;;;;;;;;;12660853;28;20043;-75
2022/04/21 19:42:07;;;;;;;8.57;6.83;;;;;;;;;;12694453;28;20040;-77
2022/04/21 19:48:09;;;;;;;8.63;6.20;;;;;;;;;;12693830;28;20032;-84
2022/04/21 19:54:11;;;;;;;5.10;4.70;;;;;;;;;;12706986;28;20055;-79
2022/04/21 20:00:13;;;;;;;5.32;4.63;;;;;;;;;;12693287;28;20036;-75
2022/04/21 20:12:38;;;;;;;5.75;5.15;;;;;;;;;;12703871;28;20050;-76
2022/04/21 20:18:39;;;;;;;5.25;4.20;;;;;;;;;;12684932;28;20036;-78
2022/04/21 20:31:02;;;;;;;4.15;3.70;;;;;;;;;;12702516;28;20358;-80
2022/04/21 20:37:04;;;;;;;3.20;2.88;;;;;;;;;;12702570;28;20036;-79
2022/04/21 20:43:06;;;;;;;4.93;3.58;;;;;;;;;;12667338;28;20030;-79
2022/04/21 20:49:07;;;;;;;3.17;2.88;;;;;;;;;;12702845;28;20035;-83
2022/04/21 20:55:10;;;;;;;4.23;3.70;;;;;;;;;;12683757;28;20066;-82
2022/04/21 21:01:13;;;;;;;3.58;3.25;;;;;;;;;;12729022;28;20036;-82
2022/04/21 21:07:15;;;;;;;3.80;3.50;;;;;;;;;;12705720;28;20511;-82
2022/04/21 21:13:17;;;;;;;3.75;3.40;;;;;;;;;;12712506;28;20404;-82
2022/04/21 21:19:19;;;;;;;3.85;3.53;;;;;;;;;;12700103;28;20503;-82
2022/04/21 21:25:21;;;;;;;4.10;3.60;;;;;;;;;;12700419;28;20032;-82
2022/04/21 21:31:23;;;;;;;3.05;2.75;;;;;;;;;;12700014;28;20562;-82
2022/04/21 21:37:25;;;;;;;3.80;3.40;;;;;;;;;;12681674;28;20034;-82
2022/04/21 21:43:26;;;;;;;3.17;2.90;;;;;;;;;;12681340;28;20038;-82
2022/04/21 21:55:48;;;;;;;5.13;4.72;;;;;;;;;;12693197;28;20056;-82
2022/04/21 22:01:50;;;;;;;3.90;3.60;;;;;;;;;;12663842;28;20040;-82
2022/04/21 22:07:52;;;;;;;4.30;3.90;;;;;;;;;;12698339;28;20028;-82
2022/04/21 22:13:55;;;;;;;4.10;3.80;;;;;;;;;;12698013;28;20047;-82
2022/04/21 22:19:57;;;;;;;4.30;3.90;;;;;;;;;;12709102;28;20040;-82
2022/04/21 22:25:59;;;;;;;3.97;3.63;;;;;;;;;;12697824;28;20031;-82
2022/04/21 22:32:00;;;;;;;4.18;3.88;;;;;;;;;;12677975;28;20067;-81
2022/04/21 22:38:08;;;;;;;3.40;3.10;;;;;;;;;;12696863;28;20023;-81
2022/04/21 22:44:10;;;;;;;4.03;3.72;;;;;;;;;;12678602;28;20043;-82
2022/04/21 22:50:12;;;;;;;4.03;3.72;;;;;;;;;;12696234;28;20032;-82
2022/04/21 22:56:14;;;;;;;4.30;3.90;;;;;;;;;;12689017;28;20059;-82
2022/04/21 23:02:16;;;;;;;6.30;5.70;;;;;;;;;;12697112;28;20039;-82
2022/04/21 23:08:17;;;;;;;6.22;5.72;;;;;;;;;;12660592;28;20040;-82
2022/04/21 23:14:19;;;;;;;5.68;5.13;;;;;;;;;;12677231;28;20043;-82
2022/04/21 23:20:21;;;;;;;5.53;5.03;;;;;;;;;;12671844;28;20051;-81
2022/04/21 23:26:23;;;;;;;6.00;5.45;;;;;;;;;;12694882;28;20070;-82
2022/04/21 23:32:25;;;;;;;6.72;5.65;;;;;;;;;;12660647;28;20055;-83
2022/04/21 23:38:29;;;;;;;6.28;5.68;;;;;;;;;;12687258;28;20031;-82
2022/04/21 23:44:32;;;;;;;5.38;4.88;;;;;;;;;;12659026;28;20039;-82
2022/04/21 23:50:34;;;;;;;4.82;4.53;;;;;;;;;;12694721;28;20476;-81
2022/04/21 23:56:36;;;;;;;4.95;4.55;;;;;;;;;;12659226;28;20039;-82
